sensor_id;sensor_type;location;lat;lon;timestamp;P1;durP1;ratioP1;P2;durP2;ratioP2
24259;SDS011;12384;48.112;18.418;2023-06-05T00:00:07;14.93;;;14.13;;
24259;SDS011;12384;48.112;18.418;2023-06-05T00:02:39;15.97;;;14.97;;
24259;SDS011;12384;48.112;18.418;2023-06-05T00:05:08;16.07;;;15.17;;
24259;SDS011;12384;48.112;18.418;2023-06-05T00:07:38;15.90;;;15.00;;
24259;SDS011;12384;48.112;18.418;2023-06-05T00:10:08;15.80;;;14.90;;
24259;SDS011;12384;48.112;18.418;2023-06-05T00:12:38;16.03;;;15.13;;
24259;SDS011;12384;48.112;18.418;2023-06-05T00:15:08;15.70;;;14.80;;
24259;SDS011;12384;48.112;18.418;2023-06-05T00:17:38;16.27;;;15.37;;
24259;SDS011;12384;48.112;18.418;2023-06-05T00:20:08;16.30;;;15.30;;
24259;SDS011;12384;48.112;18.418;2023-06-05T00:22:38;16.20;;;15.30;;
24259;SDS011;12384;48.112;18.418;2023-06-05T00:25:07;16.53;;;15.53;;
24259;SDS011;12384;48.112;18.418;2023-06-05T00:27:36;16.60;;;15.67;;
24259;SDS011;12384;48.112;18.418;2023-06-05T00:30:08;16.50;;;15.60;;
24259;SDS011;12384;48.112;18.418;2023-06-05T00:32:37;16.90;;;15.90;;
24259;SDS011;12384;48.112;18.418;2023-06-05T00:35:07;16.43;;;15.53;;
24259;SDS011;12384;48.112;18.418;2023-06-05T00:37:37;16.10;;;15.20;;
24259;SDS011;12384;48.112;18.418;2023-06-05T00:40:07;16.33;;;15.40;;
24259;SDS011;12384;48.112;18.418;2023-06-05T00:42:36;16.67;;;15.67;;
24259;SDS011;12384;48.112;18.418;2023-06-05T00:45:06;17.00;;;15.97;;
24259;SDS011;12384;48.112;18.418;2023-06-05T00:47:35;17.33;;;16.23;;
24259;SDS011;12384;48.112;18.418;2023-06-05T00:50:05;17.07;;;16.03;;
24259;SDS011;12384;48.112;18.418;2023-06-05T00:52:35;17.03;;;15.83;;
24259;SDS011;12384;48.112;18.418;2023-06-05T00:55:06;17.07;;;16.07;;
24259;SDS011;12384;48.112;18.418;2023-06-05T00:57:36;16.80;;;15.80;;
24259;SDS011;12384;48.112;18.418;2023-06-05T01:00:08;17.30;;;16.03;;
24259;SDS011;12384;48.112;18.418;2023-06-05T01:02:39;16.10;;;15.20;;
24259;SDS011;12384;48.112;18.418;2023-06-05T01:05:09;17.10;;;15.97;;
24259;SDS011;12384;48.112;18.418;2023-06-05T01:07:37;17.10;;;16.10;;
24259;SDS011;12384;48.112;18.418;2023-06-05T01:10:09;16.40;;;15.40;;
24259;SDS011;12384;48.112;18.418;2023-06-05T01:12:40;17.10;;;16.10;;
24259;SDS011;12384;48.112;18.418;2023-06-05T01:15:15;16.80;;;15.80;;
24259;SDS011;12384;48.112;18.418;2023-06-05T01:17:45;18.00;;;16.57;;
24259;SDS011;12384;48.112;18.418;2023-06-05T01:20:14;16.60;;;15.60;;
24259;SDS011;12384;48.112;18.418;2023-06-05T01:22:49;17.10;;;16.10;;
24259;SDS011;12384;48.112;18.418;2023-06-05T01:25:19;15.93;;;14.93;;
24259;SDS011;12384;48.112;18.418;2023-06-05T01:27:50;16.57;;;15.47;;
24259;SDS011;12384;48.112;18.418;2023-06-05T01:30:27;16.20;;;15.20;;
24259;SDS011;12384;48.112;18.418;2023-06-05T01:33:00;16.57;;;15.43;;
24259;SDS011;12384;48.112;18.418;2023-06-05T01:35:31;15.67;;;14.77;;
24259;SDS011;12384;48.112;18.418;2023-06-05T01:38:02;15.70;;;14.63;;
24259;SDS011;12384;48.112;18.418;2023-06-05T01:40:34;17.50;;;16.20;;
24259;SDS011;12384;48.112;18.418;2023-06-05T01:43:04;17.13;;;15.80;;
24259;SDS011;12384;48.112;18.418;2023-06-05T01:45:36;16.70;;;15.70;;
24259;SDS011;12384;48.112;18.418;2023-06-05T01:48:07;17.07;;;15.97;;
24259;SDS011;12384;48.112;18.418;2023-06-05T01:50:37;17.50;;;16.10;;
24259;SDS011;12384;48.112;18.418;2023-06-05T01:53:10;16.77;;;15.40;;
24259;SDS011;12384;48.112;18.418;2023-06-05T01:55:39;15.90;;;14.80;;
24259;SDS011;12384;48.112;18.418;2023-06-05T01:58:08;15.47;;;14.57;;
24259;SDS011;12384;48.112;18.418;2023-06-05T02:00:37;15.20;;;14.20;;
24259;SDS011;12384;48.112;18.418;2023-06-05T02:03:06;14.50;;;13.60;;
24259;SDS011;12384;48.112;18.418;2023-06-05T02:05:35;14.70;;;13.80;;
24259;SDS011;12384;48.112;18.418;2023-06-05T02:08:03;14.70;;;13.57;;
24259;SDS011;12384;48.112;18.418;2023-06-05T02:10:38;14.70;;;13.70;;
24259;SDS011;12384;48.112;18.418;2023-06-05T02:13:09;13.70;;;12.80;;
24259;SDS011;12384;48.112;18.418;2023-06-05T02:15:38;13.67;;;12.67;;
24259;SDS011;12384;48.112;18.418;2023-06-05T02:18:08;13.00;;;12.20;;
24259;SDS011;12384;48.112;18.418;2023-06-05T02:20:37;13.60;;;12.70;;
24259;SDS011;12384;48.112;18.418;2023-06-05T02:23:06;13.60;;;12.60;;
24259;SDS011;12384;48.112;18.418;2023-06-05T02:25:34;14.77;;;13.87;;
24259;SDS011;12384;48.112;18.418;2023-06-05T02:28:05;13.73;;;12.80;;
24259;SDS011;12384;48.112;18.418;2023-06-05T02:30:34;13.70;;;12.90;;
24259;SDS011;12384;48.112;18.418;2023-06-05T02:33:04;14.53;;;13.43;;
24259;SDS011;12384;48.112;18.418;2023-06-05T02:35:33;14.20;;;13.20;;
24259;SDS011;12384;48.112;18.418;2023-06-05T02:38:02;14.87;;;13.90;;
24259;SDS011;12384;48.112;18.418;2023-06-05T02:40:33;13.90;;;13.10;;
24259;SDS011;12384;48.112;18.418;2023-06-05T02:43:02;13.50;;;12.70;;
24259;SDS011;12384;48.112;18.418;2023-06-05T02:45:34;14.13;;;13.23;;
24259;SDS011;12384;48.112;18.418;2023-06-05T02:48:03;15.00;;;14.00;;
24259;SDS011;12384;48.112;18.418;2023-06-05T02:50:33;14.90;;;13.90;;
24259;SDS011;12384;48.112;18.418;2023-06-05T02:53:05;14.67;;;13.67;;
24259;SDS011;12384;48.112;18.418;2023-06-05T02:55:35;16.93;;;15.77;;
24259;SDS011;12384;48.112;18.418;2023-06-05T02:58:10;16.70;;;15.23;;
24259;SDS011;12384;48.112;18.418;2023-06-05T03:00:46;16.17;;;14.97;;
24259;SDS011;12384;48.112;18.418;2023-06-05T03:03:19;16.23;;;15.07;;
24259;SDS011;12384;48.112;18.418;2023-06-05T03:05:54;15.83;;;14.63;;
24259;SDS011;12384;48.112;18.418;2023-06-05T03:08:22;16.70;;;15.60;;
24259;SDS011;12384;48.112;18.418;2023-06-05T03:10:54;16.57;;;15.37;;
24259;SDS011;12384;48.112;18.418;2023-06-05T03:13:23;16.33;;;15.30;;
24259;SDS011;12384;48.112;18.418;2023-06-05T03:15:54;17.40;;;16.30;;
24259;SDS011;12384;48.112;18.418;2023-06-05T03:18:26;16.83;;;15.60;;
24259;SDS011;12384;48.112;18.418;2023-06-05T03:20:58;17.83;;;16.57;;
24259;SDS011;12384;48.112;18.418;2023-06-05T03:23:28;17.07;;;15.97;;
24259;SDS011;12384;48.112;18.418;2023-06-05T03:26:01;16.23;;;15.23;;
24259;SDS011;12384;48.112;18.418;2023-06-05T03:28:31;16.10;;;15.10;;
24259;SDS011;12384;48.112;18.418;2023-06-05T03:31:06;17.03;;;15.93;;
24259;SDS011;12384;48.112;18.418;2023-06-05T03:33:40;17.00;;;15.90;;
24259;SDS011;12384;48.112;18.418;2023-06-05T03:36:09;16.63;;;15.53;;
24259;SDS011;12384;48.112;18.418;2023-06-05T03:38:39;18.30;;;17.03;;
24259;SDS011;12384;48.112;18.418;2023-06-05T03:41:08;17.60;;;16.50;;
24259;SDS011;12384;48.112;18.418;2023-06-05T03:43:37;17.07;;;15.97;;
24259;SDS011;12384;48.112;18.418;2023-06-05T03:46:07;22.73;;;20.90;;
24259;SDS011;12384;48.112;18.418;2023-06-05T03:48:38;22.73;;;21.13;;
24259;SDS011;12384;48.112;18.418;2023-06-05T03:51:07;22.50;;;20.97;;
24259;SDS011;12384;48.112;18.418;2023-06-05T03:53:36;24.50;;;22.47;;
24259;SDS011;12384;48.112;18.418;2023-06-05T03:56:10;23.80;;;21.70;;
24259;SDS011;12384;48.112;18.418;2023-06-05T03:58:42;23.43;;;21.43;;
24259;SDS011;12384;48.112;18.418;2023-06-05T04:01:14;23.97;;;22.00;;
24259;SDS011;12384;48.112;18.418;2023-06-05T04:03:43;23.73;;;21.73;;
24259;SDS011;12384;48.112;18.418;2023-06-05T04:06:12;23.27;;;21.47;;
24259;SDS011;12384;48.112;18.418;2023-06-05T04:08:41;24.00;;;22.03;;
24259;SDS011;12384;48.112;18.418;2023-06-05T04:11:10;22.63;;;20.83;;
24259;SDS011;12384;48.112;18.418;2023-06-05T04:13:39;23.40;;;21.50;;
24259;SDS011;12384;48.112;18.418;2023-06-05T04:16:08;23.87;;;21.83;;
24259;SDS011;12384;48.112;18.418;2023-06-05T04:18:39;22.33;;;20.53;;
24259;SDS011;12384;48.112;18.418;2023-06-05T04:21:09;21.60;;;19.73;;
24259;SDS011;12384;48.112;18.418;2023-06-05T04:23:38;21.33;;;19.70;;
24259;SDS011;12384;48.112;18.418;2023-06-05T04:26:06;19.37;;;17.97;;
24259;SDS011;12384;48.112;18.418;2023-06-05T04:28:35;19.30;;;18.10;;
24259;SDS011;12384;48.112;18.418;2023-06-05T04:31:04;19.27;;;17.83;;
24259;SDS011;12384;48.112;18.418;2023-06-05T04:33:34;17.87;;;16.63;;
24259;SDS011;12384;48.112;18.418;2023-06-05T04:36:04;18.47;;;17.17;;
24259;SDS011;12384;48.112;18.418;2023-06-05T04:38:33;17.23;;;16.13;;
24259;SDS011;12384;48.112;18.418;2023-06-05T04:41:04;17.60;;;16.30;;
24259;SDS011;12384;48.112;18.418;2023-06-05T04:43:34;17.33;;;16.07;;
24259;SDS011;12384;48.112;18.418;2023-06-05T04:46:03;17.63;;;16.33;;
24259;SDS011;12384;48.112;18.418;2023-06-05T04:48:32;18.03;;;16.73;;
24259;SDS011;12384;48.112;18.418;2023-06-05T04:51:06;18.07;;;16.67;;
24259;SDS011;12384;48.112;18.418;2023-06-05T04:53:35;17.27;;;15.97;;
24259;SDS011;12384;48.112;18.418;2023-06-05T04:56:04;16.30;;;15.20;;
24259;SDS011;12384;48.112;18.418;2023-06-05T04:58:34;18.17;;;16.70;;
24259;SDS011;12384;48.112;18.418;2023-06-05T05:01:03;17.23;;;16.03;;
24259;SDS011;12384;48.112;18.418;2023-06-05T05:03:37;17.23;;;15.83;;
24259;SDS011;12384;48.112;18.418;2023-06-05T05:06:11;16.40;;;15.10;;
24259;SDS011;12384;48.112;18.418;2023-06-05T05:08:44;15.07;;;14.07;;
24259;SDS011;12384;48.112;18.418;2023-06-05T05:11:13;15.50;;;14.13;;
24259;SDS011;12384;48.112;18.418;2023-06-05T05:13:42;15.10;;;14.00;;
24259;SDS011;12384;48.112;18.418;2023-06-05T05:16:12;14.67;;;13.47;;
24259;SDS011;12384;48.112;18.418;2023-06-05T05:18:43;14.83;;;13.73;;
24259;SDS011;12384;48.112;18.418;2023-06-05T05:21:14;14.53;;;13.03;;
24259;SDS011;12384;48.112;18.418;2023-06-05T05:23:44;14.27;;;13.07;;
24259;SDS011;12384;48.112;18.418;2023-06-05T05:26:13;13.77;;;12.67;;
24259;SDS011;12384;48.112;18.418;2023-06-05T05:28:42;11.70;;;10.87;;
24259;SDS011;12384;48.112;18.418;2023-06-05T05:31:11;11.80;;;10.90;;
24259;SDS011;12384;48.112;18.418;2023-06-05T05:33:40;11.23;;;10.23;;
24259;SDS011;12384;48.112;18.418;2023-06-05T05:36:09;11.17;;;9.50;;
24259;SDS011;12384;48.112;18.418;2023-06-05T05:38:39;9.93;;;9.13;;
24259;SDS011;12384;48.112;18.418;2023-06-05T05:41:08;9.43;;;8.73;;
24259;SDS011;12384;48.112;18.418;2023-06-05T05:43:37;10.00;;;9.10;;
24259;SDS011;12384;48.112;18.418;2023-06-05T05:46:06;9.03;;;8.33;;
24259;SDS011;12384;48.112;18.418;2023-06-05T05:48:35;11.10;;;9.37;;
24259;SDS011;12384;48.112;18.418;2023-06-05T05:51:04;10.10;;;8.93;;
24259;SDS011;12384;48.112;18.418;2023-06-05T05:53:35;8.63;;;7.83;;
24259;SDS011;12384;48.112;18.418;2023-06-05T05:56:05;9.47;;;8.60;;
24259;SDS011;12384;48.112;18.418;2023-06-05T05:58:34;9.17;;;8.47;;
24259;SDS011;12384;48.112;18.418;2023-06-05T06:01:03;11.60;;;8.70;;
24259;SDS011;12384;48.112;18.418;2023-06-05T06:03:33;9.17;;;8.30;;
24259;SDS011;12384;48.112;18.418;2023-06-05T06:06:04;9.40;;;8.57;;
24259;SDS011;12384;48.112;18.418;2023-06-05T06:08:34;10.00;;;9.20;;
24259;SDS011;12384;48.112;18.418;2023-06-05T06:11:06;9.30;;;8.50;;
24259;SDS011;12384;48.112;18.418;2023-06-05T06:13:36;9.90;;;9.07;;
24259;SDS011;12384;48.112;18.418;2023-06-05T06:16:05;11.53;;;10.60;;
24259;SDS011;12384;48.112;18.418;2023-06-05T06:18:34;9.63;;;8.90;;
24259;SDS011;12384;48.112;18.418;2023-06-05T06:21:03;11.57;;;9.17;;
24259;SDS011;12384;48.112;18.418;2023-06-05T06:23:33;10.47;;;9.57;;
24259;SDS011;12384;48.112;18.418;2023-06-05T06:26:01;11.00;;;10.20;;
24259;SDS011;12384;48.112;18.418;2023-06-05T06:28:34;11.40;;;10.50;;
24259;SDS011;12384;48.112;18.418;2023-06-05T06:31:03;10.50;;;9.80;;
24259;SDS011;12384;48.112;18.418;2023-06-05T06:33:32;10.87;;;9.97;;
24259;SDS011;12384;48.112;18.418;2023-06-05T06:36:03;10.50;;;9.70;;
24259;SDS011;12384;48.112;18.418;2023-06-05T06:38:32;10.50;;;9.60;;
24259;SDS011;12384;48.112;18.418;2023-06-05T06:41:00;10.63;;;9.63;;
24259;SDS011;12384;48.112;18.418;2023-06-05T06:43:29;10.57;;;9.77;;
24259;SDS011;12384;48.112;18.418;2023-06-05T06:46:04;10.10;;;9.30;;
24259;SDS011;12384;48.112;18.418;2023-06-05T06:48:33;10.53;;;9.60;;
24259;SDS011;12384;48.112;18.418;2023-06-05T06:51:02;9.70;;;8.90;;
24259;SDS011;12384;48.112;18.418;2023-06-05T06:53:31;9.40;;;8.70;;
24259;SDS011;12384;48.112;18.418;2023-06-05T06:56:01;9.10;;;8.40;;
24259;SDS011;12384;48.112;18.418;2023-06-05T06:58:30;9.90;;;8.97;;
24259;SDS011;12384;48.112;18.418;2023-06-05T07:00:59;9.50;;;8.70;;
24259;SDS011;12384;48.112;18.418;2023-06-05T07:03:29;11.63;;;10.73;;
24259;SDS011;12384;48.112;18.418;2023-06-05T07:05:58;11.37;;;10.37;;
24259;SDS011;12384;48.112;18.418;2023-06-05T07:08:27;12.20;;;11.27;;
24259;SDS011;12384;48.112;18.418;2023-06-05T07:10:56;11.83;;;10.97;;
24259;SDS011;12384;48.112;18.418;2023-06-05T07:13:25;11.33;;;10.53;;
24259;SDS011;12384;48.112;18.418;2023-06-05T07:15:53;12.27;;;11.43;;
24259;SDS011;12384;48.112;18.418;2023-06-05T07:18:22;12.30;;;11.40;;
24259;SDS011;12384;48.112;18.418;2023-06-05T07:20:52;12.87;;;11.87;;
24259;SDS011;12384;48.112;18.418;2023-06-05T07:23:21;12.03;;;11.13;;
24259;SDS011;12384;48.112;18.418;2023-06-05T07:25:50;12.37;;;11.57;;
24259;SDS011;12384;48.112;18.418;2023-06-05T07:28:20;12.00;;;11.10;;
24259;SDS011;12384;48.112;18.418;2023-06-05T07:30:50;11.93;;;11.13;;
24259;SDS011;12384;48.112;18.418;2023-06-05T07:33:19;11.97;;;11.17;;
24259;SDS011;12384;48.112;18.418;2023-06-05T07:35:58;12.67;;;11.87;;
24259;SDS011;12384;48.112;18.418;2023-06-05T07:38:28;12.77;;;11.83;;
24259;SDS011;12384;48.112;18.418;2023-06-05T07:40:59;12.23;;;11.43;;
24259;SDS011;12384;48.112;18.418;2023-06-05T07:43:28;11.97;;;11.17;;
24259;SDS011;12384;48.112;18.418;2023-06-05T07:45:57;12.23;;;11.17;;
24259;SDS011;12384;48.112;18.418;2023-06-05T07:48:26;13.13;;;12.23;;
24259;SDS011;12384;48.112;18.418;2023-06-05T07:50:55;10.10;;;9.50;;
24259;SDS011;12384;48.112;18.418;2023-06-05T07:53:25;11.37;;;10.37;;
24259;SDS011;12384;48.112;18.418;2023-06-05T07:55:54;12.33;;;11.37;;
24259;SDS011;12384;48.112;18.418;2023-06-05T07:58:24;11.50;;;10.60;;
24259;SDS011;12384;48.112;18.418;2023-06-05T08:00:54;12.20;;;11.43;;
24259;SDS011;12384;48.112;18.418;2023-06-05T08:03:23;11.13;;;10.20;;
24259;SDS011;12384;48.112;18.418;2023-06-05T08:05:53;10.10;;;9.30;;
24259;SDS011;12384;48.112;18.418;2023-06-05T08:08:21;10.87;;;10.13;;
24259;SDS011;12384;48.112;18.418;2023-06-05T08:10:51;11.73;;;10.73;;
24259;SDS011;12384;48.112;18.418;2023-06-05T08:13:20;11.47;;;10.77;;
24259;SDS011;12384;48.112;18.418;2023-06-05T08:15:49;11.77;;;11.00;;
24259;SDS011;12384;48.112;18.418;2023-06-05T08:18:18;13.07;;;12.20;;
24259;SDS011;12384;48.112;18.418;2023-06-05T08:20:48;11.23;;;10.53;;
24259;SDS011;12384;48.112;18.418;2023-06-05T08:23:17;11.77;;;10.97;;
24259;SDS011;12384;48.112;18.418;2023-06-05T08:25:46;11.13;;;10.43;;
24259;SDS011;12384;48.112;18.418;2023-06-05T08:28:16;11.97;;;11.17;;
24259;SDS011;12384;48.112;18.418;2023-06-05T08:30:45;11.87;;;11.03;;
24259;SDS011;12384;48.112;18.418;2023-06-05T08:33:14;10.23;;;9.63;;
24259;SDS011;12384;48.112;18.418;2023-06-05T08:35:45;13.13;;;12.23;;
24259;SDS011;12384;48.112;18.418;2023-06-05T08:38:14;10.30;;;9.53;;
24259;SDS011;12384;48.112;18.418;2023-06-05T08:40:43;12.23;;;11.43;;
24259;SDS011;12384;48.112;18.418;2023-06-05T08:43:19;12.00;;;11.13;;
24259;SDS011;12384;48.112;18.418;2023-06-05T08:45:48;12.10;;;11.20;;
24259;SDS011;12384;48.112;18.418;2023-06-05T08:48:20;11.50;;;10.73;;
24259;SDS011;12384;48.112;18.418;2023-06-05T08:50:50;10.90;;;10.20;;
24259;SDS011;12384;48.112;18.418;2023-06-05T08:53:20;10.40;;;9.73;;
24259;SDS011;12384;48.112;18.418;2023-06-05T08:55:53;11.10;;;10.20;;
24259;SDS011;12384;48.112;18.418;2023-06-05T08:58:25;10.33;;;9.63;;
24259;SDS011;12384;48.112;18.418;2023-06-05T09:00:54;12.57;;;11.87;;
24259;SDS011;12384;48.112;18.418;2023-06-05T09:03:23;12.90;;;11.87;;
24259;SDS011;12384;48.112;18.418;2023-06-05T09:05:52;10.50;;;9.80;;
24259;SDS011;12384;48.112;18.418;2023-06-05T09:08:27;10.90;;;10.10;;
24259;SDS011;12384;48.112;18.418;2023-06-05T09:13:55;11.20;;;10.50;;
24259;SDS011;12384;48.112;18.418;2023-06-05T09:16:32;11.80;;;10.90;;
24259;SDS011;12384;48.112;18.418;2023-06-05T09:19:02;11.10;;;10.47;;
24259;SDS011;12384;48.112;18.418;2023-06-05T09:21:31;11.33;;;10.63;;
24259;SDS011;12384;48.112;18.418;2023-06-05T09:24:10;11.20;;;10.30;;
24259;SDS011;12384;48.112;18.418;2023-06-05T09:26:53;11.23;;;10.43;;
24259;SDS011;12384;48.112;18.418;2023-06-05T09:29:25;10.70;;;9.90;;
24259;SDS011;12384;48.112;18.418;2023-06-05T09:31:55;11.23;;;10.53;;
24259;SDS011;12384;48.112;18.418;2023-06-05T09:34:27;11.50;;;10.60;;
24259;SDS011;12384;48.112;18.418;2023-06-05T09:36:58;10.87;;;10.27;;
24259;SDS011;12384;48.112;18.418;2023-06-05T09:39:28;10.30;;;9.70;;
24259;SDS011;12384;48.112;18.418;2023-06-05T09:41:58;10.90;;;10.27;;
24259;SDS011;12384;48.112;18.418;2023-06-05T09:44:29;11.17;;;10.47;;
24259;SDS011;12384;48.112;18.418;2023-06-05T09:46:59;10.70;;;10.00;;
24259;SDS011;12384;48.112;18.418;2023-06-05T09:49:32;11.00;;;10.30;;
24259;SDS011;12384;48.112;18.418;2023-06-05T09:52:13;10.80;;;10.10;;
24259;SDS011;12384;48.112;18.418;2023-06-05T09:54:43;10.63;;;9.90;;
24259;SDS011;12384;48.112;18.418;2023-06-05T09:57:13;10.60;;;9.90;;
24259;SDS011;12384;48.112;18.418;2023-06-05T09:59:54;10.17;;;9.47;;
24259;SDS011;12384;48.112;18.418;2023-06-05T10:02:23;10.23;;;9.43;;
24259;SDS011;12384;48.112;18.418;2023-06-05T10:04:56;10.37;;;9.67;;
24259;SDS011;12384;48.112;18.418;2023-06-05T10:07:27;10.17;;;9.53;;
24259;SDS011;12384;48.112;18.418;2023-06-05T10:09:57;9.97;;;9.37;;
24259;SDS011;12384;48.112;18.418;2023-06-05T10:12:27;10.23;;;9.60;;
24259;SDS011;12384;48.112;18.418;2023-06-05T10:14:59;10.20;;;9.60;;
24259;SDS011;12384;48.112;18.418;2023-06-05T10:17:30;9.77;;;9.17;;
24259;SDS011;12384;48.112;18.418;2023-06-05T10:20:01;10.60;;;9.80;;
24259;SDS011;12384;48.112;18.418;2023-06-05T10:22:30;9.97;;;9.37;;
24259;SDS011;12384;48.112;18.418;2023-06-05T10:25:02;10.30;;;9.60;;
24259;SDS011;12384;48.112;18.418;2023-06-05T10:27:44;10.63;;;9.73;;
24259;SDS011;12384;48.112;18.418;2023-06-05T10:33:37;10.40;;;9.80;;
24259;SDS011;12384;48.112;18.418;2023-06-05T10:36:24;10.67;;;9.87;;
24259;SDS011;12384;48.112;18.418;2023-06-05T10:39:08;10.63;;;9.95;;
24259;SDS011;12384;48.112;18.418;2023-06-05T10:41:38;10.38;;;9.60;;
24259;SDS011;12384;48.112;18.418;2023-06-05T10:44:07;10.15;;;9.32;;
24259;SDS011;12384;48.112;18.418;2023-06-05T10:46:37;9.95;;;9.13;;
24259;SDS011;12384;48.112;18.418;2023-06-05T10:49:08;10.00;;;9.30;;
24259;SDS011;12384;48.112;18.418;2023-06-05T10:51:39;10.07;;;9.35;;
24259;SDS011;12384;48.112;18.418;2023-06-05T10:54:10;10.27;;;9.57;;
24259;SDS011;12384;48.112;18.418;2023-06-05T10:56:53;10.25;;;9.63;;
24259;SDS011;12384;48.112;18.418;2023-06-05T10:59:28;9.88;;;9.27;;
24259;SDS011;12384;48.112;18.418;2023-06-05T11:05:02;9.30;;;8.50;;
24259;SDS011;12384;48.112;18.418;2023-06-05T11:07:37;9.80;;;9.15;;
24259;SDS011;12384;48.112;18.418;2023-06-05T11:10:07;9.80;;;9.00;;
24259;SDS011;12384;48.112;18.418;2023-06-05T11:12:53;8.60;;;8.00;;
24259;SDS011;12384;48.112;18.418;2023-06-05T11:15:35;10.00;;;9.30;;
24259;SDS011;12384;48.112;18.418;2023-06-05T11:21:01;10.40;;;9.68;;
24259;SDS011;12384;48.112;18.418;2023-06-05T11:23:30;9.10;;;8.50;;
24259;SDS011;12384;48.112;18.418;2023-06-05T11:29:10;9.27;;;8.68;;
24259;SDS011;12384;48.112;18.418;2023-06-05T11:31:43;8.60;;;8.10;;
24259;SDS011;12384;48.112;18.418;2023-06-05T11:34:14;8.93;;;8.27;;
24259;SDS011;12384;48.112;18.418;2023-06-05T11:36:43;8.57;;;8.07;;
24259;SDS011;12384;48.112;18.418;2023-06-05T11:39:12;9.15;;;8.45;;
24259;SDS011;12384;48.112;18.418;2023-06-05T11:41:45;9.40;;;8.80;;
24259;SDS011;12384;48.112;18.418;2023-06-05T11:44:14;10.90;;;10.20;;
24259;SDS011;12384;48.112;18.418;2023-06-05T11:46:44;11.00;;;10.30;;
24259;SDS011;12384;48.112;18.418;2023-06-05T11:49:26;11.80;;;11.10;;
24259;SDS011;12384;48.112;18.418;2023-06-05T11:51:56;11.18;;;10.48;;
24259;SDS011;12384;48.112;18.418;2023-06-05T11:54:28;11.40;;;10.68;;
24259;SDS011;12384;48.112;18.418;2023-06-05T11:57:01;11.07;;;10.27;;
24259;SDS011;12384;48.112;18.418;2023-06-05T11:59:37;11.40;;;10.70;;
24259;SDS011;12384;48.112;18.418;2023-06-05T12:02:07;10.82;;;10.02;;
24259;SDS011;12384;48.112;18.418;2023-06-05T12:04:39;10.57;;;9.93;;
24259;SDS011;12384;48.112;18.418;2023-06-05T12:07:09;11.10;;;10.30;;
24259;SDS011;12384;48.112;18.418;2023-06-05T12:09:39;8.63;;;8.13;;
24259;SDS011;12384;48.112;18.418;2023-06-05T12:12:08;10.23;;;9.52;;
24259;SDS011;12384;48.112;18.418;2023-06-05T12:14:37;10.00;;;9.40;;
24259;SDS011;12384;48.112;18.418;2023-06-05T12:17:09;10.18;;;9.52;;
24259;SDS011;12384;48.112;18.418;2023-06-05T12:19:40;9.00;;;8.50;;
24259;SDS011;12384;48.112;18.418;2023-06-05T12:22:09;9.18;;;8.57;;
24259;SDS011;12384;48.112;18.418;2023-06-05T12:24:39;10.40;;;9.60;;
24259;SDS011;12384;48.112;18.418;2023-06-05T12:27:08;9.50;;;8.95;;
24259;SDS011;12384;48.112;18.418;2023-06-05T12:29:39;9.35;;;8.75;;
24259;SDS011;12384;48.112;18.418;2023-06-05T12:32:21;8.98;;;8.43;;
24259;SDS011;12384;48.112;18.418;2023-06-05T12:34:53;9.15;;;8.55;;
24259;SDS011;12384;48.112;18.418;2023-06-05T12:37:31;9.68;;;9.02;;
24259;SDS011;12384;48.112;18.418;2023-06-05T12:40:05;8.93;;;8.32;;
24259;SDS011;12384;48.112;18.418;2023-06-05T12:42:38;10.43;;;9.55;;
24259;SDS011;12384;48.112;18.418;2023-06-05T12:45:10;9.82;;;9.23;;
24259;SDS011;12384;48.112;18.418;2023-06-05T12:47:39;10.13;;;9.52;;
24259;SDS011;12384;48.112;18.418;2023-06-05T12:50:11;10.77;;;10.07;;
24259;SDS011;12384;48.112;18.418;2023-06-05T12:52:40;9.52;;;8.75;;
24259;SDS011;12384;48.112;18.418;2023-06-05T12:55:09;10.88;;;10.15;;
24259;SDS011;12384;48.112;18.418;2023-06-05T12:57:38;10.20;;;9.40;;
24259;SDS011;12384;48.112;18.418;2023-06-05T13:00:08;9.60;;;9.00;;
24259;SDS011;12384;48.112;18.418;2023-06-05T13:02:41;10.27;;;9.57;;
24259;SDS011;12384;48.112;18.418;2023-06-05T13:05:14;9.20;;;8.70;;
24259;SDS011;12384;48.112;18.418;2023-06-05T13:07:43;10.23;;;9.52;;
24259;SDS011;12384;48.112;18.418;2023-06-05T13:10:12;9.15;;;8.55;;
24259;SDS011;12384;48.112;18.418;2023-06-05T13:12:41;9.30;;;8.63;;
24259;SDS011;12384;48.112;18.418;2023-06-05T13:15:11;10.60;;;10.00;;
24259;SDS011;12384;48.112;18.418;2023-06-05T13:17:40;10.43;;;9.73;;
24259;SDS011;12384;48.112;18.418;2023-06-05T13:20:10;9.70;;;9.00;;
24259;SDS011;12384;48.112;18.418;2023-06-05T13:22:41;8.73;;;8.20;;
24259;SDS011;12384;48.112;18.418;2023-06-05T13:25:10;9.13;;;8.63;;
24259;SDS011;12384;48.112;18.418;2023-06-05T13:27:39;9.65;;;9.05;;
24259;SDS011;12384;48.112;18.418;2023-06-05T13:30:09;9.50;;;8.88;;
24259;SDS011;12384;48.112;18.418;2023-06-05T13:32:38;9.68;;;9.13;;
24259;SDS011;12384;48.112;18.418;2023-06-05T13:35:08;9.50;;;8.80;;
24259;SDS011;12384;48.112;18.418;2023-06-05T13:37:38;8.68;;;8.18;;
24259;SDS011;12384;48.112;18.418;2023-06-05T13:40:09;9.18;;;8.57;;
24259;SDS011;12384;48.112;18.418;2023-06-05T13:42:39;10.35;;;9.65;;
24259;SDS011;12384;48.112;18.418;2023-06-05T13:45:08;9.30;;;8.50;;
24259;SDS011;12384;48.112;18.418;2023-06-05T13:47:38;10.50;;;9.80;;
24259;SDS011;12384;48.112;18.418;2023-06-05T13:50:07;9.82;;;9.02;;
24259;SDS011;12384;48.112;18.418;2023-06-05T13:52:36;10.00;;;9.25;;
24259;SDS011;12384;48.112;18.418;2023-06-05T13:55:06;9.27;;;8.65;;
24259;SDS011;12384;48.112;18.418;2023-06-05T13:57:36;9.40;;;8.85;;
24259;SDS011;12384;48.112;18.418;2023-06-05T14:00:05;9.38;;;8.88;;
24259;SDS011;12384;48.112;18.418;2023-06-05T14:02:36;9.75;;;8.95;;
24259;SDS011;12384;48.112;18.418;2023-06-05T14:05:05;9.07;;;8.48;;
24259;SDS011;12384;48.112;18.418;2023-06-05T14:07:37;9.05;;;8.20;;
24259;SDS011;12384;48.112;18.418;2023-06-05T14:10:16;8.95;;;8.25;;
24259;SDS011;12384;48.112;18.418;2023-06-05T14:12:47;9.80;;;9.13;;
24259;SDS011;12384;48.112;18.418;2023-06-05T14:15:17;10.00;;;9.40;;
24259;SDS011;12384;48.112;18.418;2023-06-05T14:17:47;8.77;;;8.27;;
24259;SDS011;12384;48.112;18.418;2023-06-05T14:20:18;8.88;;;8.32;;
24259;SDS011;12384;48.112;18.418;2023-06-05T14:22:47;9.93;;;9.07;;
24259;SDS011;12384;48.112;18.418;2023-06-05T14:25:16;10.50;;;9.70;;
24259;SDS011;12384;48.112;18.418;2023-06-05T14:27:47;10.15;;;9.55;;
24259;SDS011;12384;48.112;18.418;2023-06-05T14:30:19;9.85;;;9.25;;
24259;SDS011;12384;48.112;18.418;2023-06-05T14:32:48;9.70;;;9.10;;
24259;SDS011;12384;48.112;18.418;2023-06-05T14:35:17;8.65;;;8.15;;
24259;SDS011;12384;48.112;18.418;2023-06-05T14:37:46;10.20;;;9.48;;
24259;SDS011;12384;48.112;18.418;2023-06-05T14:40:15;10.65;;;9.85;;
24259;SDS011;12384;48.112;18.418;2023-06-05T14:42:44;9.95;;;9.35;;
24259;SDS011;12384;48.112;18.418;2023-06-05T14:45:14;11.02;;;10.23;;
24259;SDS011;12384;48.112;18.418;2023-06-05T14:47:43;11.55;;;10.85;;
24259;SDS011;12384;48.112;18.418;2023-06-05T14:50:14;9.88;;;9.27;;